Time;durP1;ratioP1;P1;durP2;ratioP2;P2;SDS_P1;SDS_P2;PMS_P1;PMS_P2;Temp;Humidity;BMP_temperature;BMP_pressure;BME280_temperature;BME280_humidity;BME280_pressure;Samples;Min_cycle;Max_cycle;Signal;HPM_P1;HPM_P2
2022/12/06 00:01:18;;;;;;;1.48;1.08;;;6.10;99.90;;;;;;5061380;28;20052;-74
2022/12/06 00:03:46;;;;;;;1.50;0.93;;;6.20;99.90;;;;;;5060494;28;20044;-74
2022/12/06 00:06:15;;;;;;;1.73;0.85;;;6.20;99.90;;;;;;5061373;28;20058;-74
2022/12/06 00:08:42;;;;;;;1.45;0.90;;;6.10;99.90;;;;;;5063262;28;20060;-74
2022/12/06 00:11:13;;;;;;;0.98;0.60;;;6.10;99.90;;;;;;5062813;28;20071;-74
2022/12/06 00:13:40;;;;;;;1.23;0.80;;;6.10;99.90;;;;;;5059631;28;20044;-77
2022/12/06 00:16:12;;;;;;;1.27;1.00;;;6.10;99.90;;;;;;5061999;28;20092;-74
2022/12/06 00:18:39;;;;;;;1.02;0.55;;;6.00;99.90;;;;;;5062086;28;20056;-74
2022/12/06 00:21:16;;;;;;;1.45;1.00;;;6.00;99.90;;;;;;5062317;28;20056;-74
2022/12/06 00:23:44;;;;;;;1.52;0.80;;;5.90;99.90;;;;;;5061369;28;20051;-74
2022/12/06 00:26:11;;;;;;;1.40;0.60;;;5.90;99.90;;;;;;5062937;28;20045;-74
2022/12/06 00:28:38;;;;;;;2.25;1.30;;;5.90;99.90;;;;;;5060305;28;20145;-75
2022/12/06 00:31:07;;;;;;;2.20;1.25;;;5.80;99.90;;;;;;5059948;28;20131;-74
2022/12/06 00:33:34;;;;;;;1.58;1.10;;;5.80;99.90;;;;;;5061717;28;20045;-74
2022/12/06 00:36:15;;;;;;;1.48;1.00;;;5.80;99.90;;;;;;5055917;28;20141;-74
2022/12/06 00:38:41;;;;;;;2.33;1.27;;;5.70;99.90;;;;;;5061939;28;20060;-74
2022/12/06 00:41:19;;;;;;;1.83;1.10;;;5.70;99.90;;;;;;5062290;28;20049;-74
2022/12/06 00:43:45;;;;;;;1.38;1.00;;;5.60;99.90;;;;;;5048413;28;20052;-74
2022/12/06 00:46:23;;;;;;;1.00;0.73;;;5.60;99.90;;;;;;5062275;28;20154;-74
2022/12/06 00:48:50;;;;;;;1.40;1.00;;;5.50;99.90;;;;;;5059562;28;20479;-74
2022/12/06 00:51:17;;;;;;;1.35;0.98;;;5.50;99.90;;;;;;5059507;28;20055;-75
2022/12/06 00:53:44;;;;;;;1.35;0.82;;;5.50;99.90;;;;;;5060187;28;20155;-74
2022/12/06 00:56:11;;;;;;;1.40;0.90;;;5.40;99.90;;;;;;5061284;28;20084;-74
2022/12/06 00:58:38;;;;;;;1.35;0.80;;;5.40;99.90;;;;;;5059300;28;20054;-74
2022/12/06 01:01:12;;;;;;;1.85;0.90;;;5.40;99.90;;;;;;5054728;28;20125;-74
2022/12/06 01:03:39;;;;;;;2.45;1.10;;;5.40;99.90;;;;;;5060541;28;20052;-74
2022/12/06 01:06:07;;;;;;;1.73;0.90;;;5.30;99.90;;;;;;5059981;28;20052;-75
2022/12/06 01:08:34;;;;;;;1.15;0.88;;;5.30;99.90;;;;;;5061030;28;20047;-74
2022/12/06 01:11:01;;;;;;;1.33;0.85;;;5.30;99.90;;;;;;5061562;28;20400;-74
2022/12/06 01:13:28;;;;;;;1.65;0.90;;;5.30;99.90;;;;;;5058349;28;20507;-74
2022/12/06 01:15:56;;;;;;;2.83;1.33;;;5.20;99.90;;;;;;5060187;28;20052;-74
2022/12/06 01:18:23;;;;;;;2.28;1.27;;;5.20;99.90;;;;;;5059360;28;20044;-74
2022/12/06 01:20:49;;;;;;;1.38;0.98;;;5.20;99.90;;;;;;5059291;28;20068;-74
2022/12/06 01:23:16;;;;;;;1.65;1.00;;;5.20;99.90;;;;;;5061026;28;20040;-74
2022/12/06 01:25:50;;;;;;;2.50;1.20;;;5.10;99.90;;;;;;5061101;28;20052;-74
2022/12/06 01:28:17;;;;;;;2.00;0.98;;;5.10;99.90;;;;;;5058766;28;20101;-74
2022/12/06 01:30:43;;;;;;;2.45;1.27;;;5.10;99.90;;;;;;5061013;28;20053;-74
2022/12/06 01:33:10;;;;;;;2.15;1.60;;;5.00;99.90;;;;;;5059122;28;20048;-74
2022/12/06 01:35:40;;;;;;;1.60;1.00;;;5.10;99.90;;;;;;5060875;28;20412;-74
2022/12/06 01:38:08;;;;;;;1.70;1.17;;;5.00;99.90;;;;;;5060911;28;20051;-74
2022/12/06 01:40:45;;;;;;;0.88;0.73;;;5.10;99.90;;;;;;5042878;28;20072;-74
2022/12/06 01:43:48;;;;;;;1.88;1.08;;;5.00;99.90;;;;;;5042247;28;20053;-74
2022/12/06 01:46:30;;;;;;;2.47;1.00;;;5.00;99.90;;;;;;5032643;28;20061;-74
2022/12/06 01:49:08;;;;;;;1.23;0.83;;;5.00;99.90;;;;;;5041505;28;20487;-74
2022/12/06 01:51:35;;;;;;;1.58;0.98;;;5.10;99.90;;;;;;5059511;28;20049;-74
2022/12/06 01:54:03;;;;;;;1.67;1.10;;;5.00;99.90;;;;;;5060982;28;20338;-74
2022/12/06 01:56:30;;;;;;;1.60;0.95;;;5.00;99.90;;;;;;5059388;28;20475;-74
2022/12/06 01:58:57;;;;;;;1.38;1.27;;;5.10;99.90;;;;;;5058841;28;20041;-74
2022/12/06 02:01:24;;;;;;;2.45;1.02;;;5.00;99.90;;;;;;5059551;28;20045;-74
2022/12/06 02:03:53;;;;;;;2.33;1.10;;;5.10;99.90;;;;;;5059235;28;20053;-74
2022/12/06 02:06:19;;;;;;;2.08;1.10;;;5.10;99.90;;;;;;5058811;28;20126;-74
2022/12/06 02:08:46;;;;;;;2.45;1.00;;;5.00;99.90;;;;;;5059606;28;20496;-74
2022/12/06 02:11:13;;;;;;;2.00;0.93;;;5.00;99.90;;;;;;5061328;28;20127;-74
2022/12/06 02:13:39;;;;;;;2.70;1.20;;;5.00;99.90;;;;;;5059235;28;20524;-74
2022/12/06 02:16:21;;;;;;;2.72;1.30;;;4.90;99.90;;;;;;5059846;28;20132;-74
2022/12/06 02:19:00;;;;;;;1.70;1.10;;;4.90;99.90;;;;;;5058890;28;20040;-77
2022/12/06 02:21:35;;;;;;;2.75;1.48;;;4.80;99.90;;;;;;5060989;28;20135;-74
2022/12/06 02:24:30;;;;;;;3.15;1.40;;;4.80;99.90;;;;;;5058893;28;20048;-74
2022/12/06 02:27:34;;;;;;;3.40;1.70;;;4.70;99.90;;;;;;5060730;28;20071;-74
2022/12/06 02:30:08;;;;;;;2.63;1.30;;;4.70;99.90;;;;;;5061564;28;20053;-74
2022/12/06 02:32:37;;;;;;;;;;;4.70;99.90;;;;;;5057446;28;20053;-76
2022/12/06 02:35:09;;;;;;;1.77;1.15;;;4.60;99.90;;;;;;5058434;28;19942;-76
2022/12/06 02:38:15;;;;;;;1.27;1.00;;;4.60;99.90;;;;;;5062210;28;20483;-76
2022/12/06 02:40:52;;;;;;;2.45;1.30;;;4.60;99.90;;;;;;5061608;28;20085;-76
2022/12/06 02:43:22;;;;;;;2.08;1.10;;;4.60;99.90;;;;;;5033554;28;20587;-77
2022/12/06 02:45:51;;;;;;;2.17;1.08;;;4.60;99.90;;;;;;5061454;28;20127;-76
2022/12/06 02:48:19;;;;;;;1.73;1.17;;;4.50;99.90;;;;;;5063065;28;20041;-76
2022/12/06 02:50:55;;;;;;;1.48;1.17;;;4.60;99.90;;;;;;5062679;28;20131;-77
2022/12/06 02:53:21;;;;;;;1.75;1.35;;;4.60;99.90;;;;;;5065637;28;20288;-76
2022/12/06 02:55:49;;;;;;;2.55;1.35;;;4.60;99.90;;;;;;5049181;28;20049;-76
2022/12/06 02:58:15;;;;;;;1.95;1.17;;;4.60;99.90;;;;;;5065839;28;20054;-76
2022/12/06 03:00:48;;;;;;;3.00;1.48;;;4.60;99.90;;;;;;5067051;28;20049;-76
2022/12/06 03:03:27;;;;;;;1.38;0.98;;;4.60;99.90;;;;;;5066080;28;20049;-76
2022/12/06 03:06:04;;;;;;;1.98;1.10;;;4.60;99.90;;;;;;5067745;28;20143;-76
2022/12/06 03:08:51;;;;;;;2.92;1.33;;;4.60;99.90;;;;;;5066479;28;20068;-76
2022/12/06 03:11:18;;;;;;;1.92;1.30;;;4.60;99.90;;;;;;5067737;28;20156;-76
2022/12/06 03:13:48;;;;;;;2.17;1.40;;;4.50;99.90;;;;;;5065494;28;20159;-76
2022/12/06 03:16:19;;;;;;;1.52;1.08;;;4.50;99.90;;;;;;5067993;28;20044;-76
2022/12/06 03:18:53;;;;;;;1.63;1.17;;;4.40;99.90;;;;;;5065781;28;20040;-76
2022/12/06 03:21:43;;;;;;;1.80;1.10;;;4.40;99.90;;;;;;5049126;28;20082;-76
2022/12/06 03:24:11;;;;;;;1.92;1.40;;;4.30;99.90;;;;;;5063767;28;20072;-76
2022/12/06 03:26:38;;;;;;;1.65;1.05;;;4.30;99.90;;;;;;5066728;28;20144;-76
2022/12/06 03:29:05;;;;;;;1.80;1.05;;;4.30;99.90;;;;;;5064690;28;20053;-76
2022/12/06 03:31:32;;;;;;;1.70;1.27;;;4.30;99.90;;;;;;5066015;28;20143;-76
2022/12/06 03:34:02;;;;;;;2.58;1.58;;;4.20;99.90;;;;;;5064843;28;20060;-76
2022/12/06 03:36:29;;;;;;;3.90;1.73;;;4.30;99.90;;;;;;5065972;28;20565;-76
2022/12/06 03:39:01;;;;;;;3.03;1.60;;;4.30;99.90;;;;;;5065493;28;20049;-76
2022/12/06 03:41:35;;;;;;;3.20;1.40;;;4.30;99.90;;;;;;5066439;28;20189;-77
2022/12/06 03:44:02;;;;;;;2.28;1.52;;;4.40;99.90;;;;;;5064607;28;20376;-76
2022/12/06 03:46:32;;;;;;;1.88;1.25;;;4.40;99.90;;;;;;5064911;28;20475;-77
2022/12/06 03:49:05;;;;;;;2.90;1.35;;;4.50;99.90;;;;;;5061437;28;20111;-76
2022/12/06 03:51:33;;;;;;;2.60;1.42;;;4.50;99.90;;;;;;5057172;28;20428;-76
2022/12/06 03:54:03;;;;;;;2.20;1.42;;;4.50;99.90;;;;;;5065084;28;20136;-75
2022/12/06 03:56:30;;;;;;;2.63;1.48;;;4.60;99.90;;;;;;5065697;28;20059;-77
2022/12/06 03:58:58;;;;;;;2.53;1.65;;;4.60;99.90;;;;;;5064486;28;20162;-76
2022/12/06 04:01:25;;;;;;;2.38;1.63;;;4.60;99.90;;;;;;5067079;28;20143;-76
2022/12/06 04:03:51;;;;;;;4.07;1.80;;;4.70;99.90;;;;;;5065870;28;20105;-77
2022/12/06 04:06:18;;;;;;;1.73;1.20;;;4.70;99.90;;;;;;5066232;28;20051;-76
2022/12/06 04:08:45;;;;;;;1.95;1.25;;;4.70;99.90;;;;;;5066605;28;20067;-76
2022/12/06 04:11:12;;;;;;;1.92;1.52;;;4.70;99.90;;;;;;5066389;28;20353;-76
2022/12/06 04:13:39;;;;;;;2.25;1.50;;;4.70;99.90;;;;;;5065377;28;20055;-76
2022/12/06 04:18:09;;;;;;;2.63;1.75;;;4.80;99.90;;;;;;5066665;28;20069;-76
2022/12/06 04:18:54;;;;;;;2.78;1.63;;;4.80;99.90;;;;;;5065881;28;20072;-77
2022/12/06 04:23:59;;;;;;;4.03;1.88;;;4.80;99.90;;;;;;5066050;28;20051;-74
2022/12/06 04:26:26;;;;;;;2.47;1.50;;;4.80;99.90;;;;;;5064926;28;20045;-76
2022/12/06 04:39:53;;;;;;;2.45;1.35;;;4.80;99.90;;;;;;5065012;28;20120;-76
2022/12/06 04:45:06;;;;;;;4.05;1.77;;;4.80;99.90;;;;;;5066355;28;20049;-76
2022/12/06 04:47:32;;;;;;;2.08;1.55;;;4.80;99.90;;;;;;5063929;28;20052;-76
2022/12/06 04:49:59;;;;;;;3.10;1.25;;;4.80;99.90;;;;;;5064072;28;20048;-76
2022/12/06 04:52:26;;;;;;;1.95;1.42;;;4.80;99.90;;;;;;5065179;28;20044;-76
2022/12/06 04:55:01;;;;;;;3.13;1.40;;;4.80;99.90;;;;;;5064799;28;20048;-76
2022/12/06 04:57:27;;;;;;;2.80;1.48;;;4.80;99.90;;;;;;5063596;28;20071;-76
2022/12/06 04:59:54;;;;;;;2.42;1.20;;;4.80;99.90;;;;;;5065848;28;20167;-76
2022/12/06 05:02:21;;;;;;;2.25;1.27;;;4.90;99.90;;;;;;5065756;28;20055;-76
2022/12/06 05:04:47;;;;;;;2.55;1.50;;;4.90;99.90;;;;;;5064820;28;20063;-76
2022/12/06 05:07:14;;;;;;;2.13;1.00;;;4.90;99.90;;;;;;5064804;28;20068;-77
2022/12/06 05:09:41;;;;;;;2.10;1.10;;;4.90;99.90;;;;;;5064202;28;20049;-76
2022/12/06 05:12:07;;;;;;;1.92;1.40;;;4.90;99.90;;;;;;5065040;28;20476;-74
2022/12/06 05:14:34;;;;;;;1.52;1.02;;;4.90;99.90;;;;;;5063374;28;20049;-74
2022/12/06 05:17:01;;;;;;;1.70;1.10;;;5.00;99.90;;;;;;5065868;28;20047;-74
2022/12/06 05:19:28;;;;;;;1.83;0.93;;;5.00;99.90;;;;;;5064195;28;20059;-76
2022/12/06 05:21:55;;;;;;;2.42;1.10;;;5.00;99.90;;;;;;5065050;28;20218;-74
2022/12/06 05:24:22;;;;;;;1.73;1.20;;;5.10;99.90;;;;;;5064795;28;20056;-74
2022/12/06 05:26:49;;;;;;;1.00;0.90;;;5.00;99.90;;;;;;5065036;28;20087;-74
2022/12/06 05:29:16;;;;;;;2.13;1.05;;;5.00;99.90;;;;;;5064511;28;20466;-74
2022/12/06 05:31:43;;;;;;;1.38;0.95;;;5.00;99.90;;;;;;5065535;28;20048;-74
2022/12/06 05:34:10;;;;;;;2.78;0.93;;;5.00;99.90;;;;;;5064062;28;20049;-74
2022/12/06 05:36:36;;;;;;;0.95;0.75;;;5.10;99.90;;;;;;5063827;28;20045;-74
2022/12/06 05:39:03;;;;;;;1.25;0.90;;;5.10;99.90;;;;;;5063278;28;20079;-74
2022/12/06 05:41:30;;;;;;;1.40;0.98;;;5.10;99.90;;;;;;5064175;28;20048;-74
2022/12/06 05:43:56;;;;;;;1.55;1.10;;;5.10;99.90;;;;;;5063789;28;20041;-75
2022/12/06 05:46:23;;;;;;;3.08;1.25;;;5.10;99.90;;;;;;5064821;28;20068;-74
2022/12/06 05:48:50;;;;;;;2.00;1.17;;;5.20;99.90;;;;;;5059570;28;20550;-74
2022/12/06 05:51:17;;;;;;;1.58;0.95;;;5.20;99.90;;;;;;5059955;28;20044;-73
2022/12/06 05:53:43;;;;;;;1.05;0.68;;;5.20;99.90;;;;;;5058920;28;20522;-76
2022/12/06 05:56:11;;;;;;;1.38;0.80;;;5.20;99.90;;;;;;5056871;28;20154;-76
2022/12/06 05:58:37;;;;;;;1.50;0.63;;;5.20;99.90;;;;;;5058983;28;20063;-75
2022/12/06 06:01:05;;;;;;;1.10;0.88;;;5.20;99.90;;;;;;5060919;28;20168;-76
2022/12/06 06:03:32;;;;;;;1.02;0.70;;;5.20;99.90;;;;;;5057482;28;20045;-75
2022/12/06 06:05:59;;;;;;;1.33;0.90;;;5.20;99.90;;;;;;5051649;28;20041;-77
2022/12/06 06:08:26;;;;;;;2.28;1.00;;;5.20;99.90;;;;;;5057607;28;20048;-76
2022/12/06 06:10:53;;;;;;;1.90;0.90;;;5.20;99.90;;;;;;5061170;28;20135;-76
2022/12/06 06:13:20;;;;;;;2.85;1.02;;;5.10;99.90;;;;;;5058766;28;20047;-76
2022/12/06 06:15:48;;;;;;;1.80;1.15;;;5.10;99.90;;;;;;5060526;28;20052;-76
2022/12/06 06:18:15;;;;;;;3.00;1.38;;;5.10;99.90;;;;;;5063791;28;20525;-76
2022/12/06 06:20:46;;;;;;;4.38;1.23;;;5.10;99.90;;;;;;5056310;28;20677;-76
2022/12/06 06:23:13;;;;;;;3.85;1.45;;;5.10;99.90;;;;;;5037848;28;20057;-76
2022/12/06 06:25:39;;;;;;;1.20;0.75;;;5.10;99.90;;;;;;5053603;28;20059;-77
2022/12/06 06:28:06;;;;;;;1.77;1.00;;;5.00;99.90;;;;;;5054660;28;20044;-76
2022/12/06 06:30:33;;;;;;;2.03;0.80;;;5.00;99.90;;;;;;5060253;28;20049;-77
2022/12/06 06:32:59;;;;;;;1.23;0.80;;;5.00;99.90;;;;;;5044662;28;20044;-76
2022/12/06 06:35:26;;;;;;;1.80;1.08;;;5.00;99.90;;;;;;5037358;28;20655;-77
2022/12/06 06:37:53;;;;;;;2.22;1.13;;;4.90;99.90;;;;;;5050306;28;20377;-76
2022/12/06 06:40:20;;;;;;;2.88;0.85;;;4.90;99.90;;;;;;5058101;28;20054;-77
2022/12/06 06:42:47;;;;;;;0.95;0.60;;;4.90;99.90;;;;;;5056054;28;20051;-76
2022/12/06 06:45:14;;;;;;;1.05;0.70;;;4.90;99.90;;;;;;5048221;28;20195;-76
2022/12/06 06:47:40;;;;;;;1.27;0.70;;;4.90;99.90;;;;;;5062195;28;20140;-76
2022/12/06 06:50:07;;;;;;;1.42;0.80;;;4.90;99.90;;;;;;5047122;28;20053;-76
2022/12/06 06:52:34;;;;;;;0.80;0.63;;;4.90;99.90;;;;;;5060989;28;20052;-76
2022/12/06 06:55:01;;;;;;;1.55;0.60;;;4.90;99.90;;;;;;5059547;28;20053;-76
2022/12/06 06:57:27;;;;;;;0.63;0.55;;;4.90;99.90;;;;;;5060807;28;20044;-76
2022/12/06 06:59:55;;;;;;;0.82;0.40;;;4.90;99.90;;;;;;5061512;28;20052;-76
2022/12/06 07:02:22;;;;;;;0.60;0.43;;;4.90;99.90;;;;;;5062829;28;20481;-76
2022/12/06 07:04:48;;;;;;;0.68;0.60;;;4.80;99.90;;;;;;5061402;28;20105;-76
2022/12/06 07:07:15;;;;;;;1.25;0.65;;;4.80;99.90;;;;;;5063021;28;20074;-76
2022/12/06 07:09:46;;;;;;;0.93;0.60;;;4.70;99.90;;;;;;5071717;28;20055;-76
2022/12/06 07:12:14;;;;;;;0.98;0.60;;;4.70;99.90;;;;;;5058041;28;20478;-77
2022/12/06 07:14:41;;;;;;;0.60;0.45;;;4.60;99.90;;;;;;5063687;28;20297;-76
2022/12/06 07:17:07;;;;;;;0.40;0.32;;;4.60;99.90;;;;;;5064715;28;20403;-76
2022/12/06 07:19:34;;;;;;;0.63;0.57;;;4.60;99.90;;;;;;5064548;28;20549;-76
2022/12/06 07:22:01;;;;;;;1.30;0.70;;;4.50;99.90;;;;;;5062310;28;20045;-76
2022/12/06 07:24:28;;;;;;;1.20;0.60;;;4.40;99.90;;;;;;5064369;28;20047;-77
2022/12/06 07:26:56;;;;;;;1.58;0.52;;;4.40;99.90;;;;;;5058735;28;20044;-77
2022/12/06 07:29:22;;;;;;;1.05;0.60;;;4.30;99.90;;;;;;5061683;28;20142;-76
2022/12/06 07:31:49;;;;;;;0.73;0.60;;;4.30;99.90;;;;;;5064181;28;20059;-76
2022/12/06 07:34:16;;;;;;;0.70;0.52;;;4.30;99.90;;;;;;5065947;28;20147;-77
2022/12/06 07:36:42;;;;;;;1.42;0.70;;;4.20;99.90;;;;;;5064816;28;20522;-77
2022/12/06 07:39:09;;;;;;;0.73;0.52;;;4.10;99.90;;;;;;5060301;28;20044;-77
2022/12/06 07:47:11;;;;;;;1.70;0.70;;;4.00;99.90;;;;;;5062092;28;20435;-76
2022/12/06 07:49:37;;;;;;;1.30;0.68;;;3.90;99.90;;;;;;5046811;28;20049;-77
2022/12/06 07:52:04;;;;;;;1.00;0.63;;;3.90;99.90;;;;;;5066301;28;20132;-77
2022/12/06 07:54:31;;;;;;;0.88;0.60;;;3.90;99.90;;;;;;5064554;28;20056;-76
2022/12/06 07:56:58;;;;;;;0.40;0.40;;;3.80;99.90;;;;;;5066399;28;20454;-77
2022/12/06 07:59:25;;;;;;;0.50;0.50;;;3.80;99.90;;;;;;5065876;28;20493;-77
2022/12/06 08:01:51;;;;;;;1.35;0.70;;;3.80;99.90;;;;;;5048749;28;20072;-77
2022/12/06 08:04:18;;;;;;;0.40;0.35;;;3.70;99.90;;;;;;5061935;28;20439;-76
2022/12/06 08:06:45;;;;;;;0.43;0.40;;;3.70;99.90;;;;;;5061644;28;20057;-76
2022/12/06 08:09:12;;;;;;;0.30;0.30;;;3.70;99.90;;;;;;5061658;28;20056;-76
2022/12/06 08:11:39;;;;;;;0.40;0.35;;;3.60;99.90;;;;;;5032089;28;20471;-76
2022/12/06 08:14:05;;;;;;;0.80;0.50;;;3.60;99.90;;;;;;5064750;28;20162;-76
2022/12/06 08:16:32;;;;;;;0.82;0.50;;;3.50;99.90;;;;;;5065062;28;20074;-77
2022/12/06 08:18:59;;;;;;;0.98;0.40;;;3.50;99.90;;;;;;5064808;28;20147;-77
2022/12/06 08:21:26;;;;;;;0.50;0.50;;;3.60;99.90;;;;;;5064425;28;20534;-76
2022/12/06 08:23:53;;;;;;;0.57;0.40;;;3.60;99.90;;;;;;5065294;28;20051;-76
2022/12/06 08:26:21;;;;;;;1.50;0.98;;;3.60;99.90;;;;;;5048054;28;20048;-76
2022/12/06 08:28:47;;;;;;;1.30;0.70;;;3.70;99.90;;;;;;5046447;28;20080;-77
2022/12/06 08:31:19;;;;;;;0.73;0.45;;;3.80;99.90;;;;;;5065775;28;20052;-76
2022/12/06 08:33:46;;;;;;;1.20;0.50;;;3.90;99.90;;;;;;5063484;28;20041;-77
2022/12/06 08:36:15;;;;;;;0.60;0.50;;;4.00;99.90;;;;;;5047388;28;20454;-77
2022/12/06 08:38:42;;;;;;;0.70;0.40;;;4.10;99.90;;;;;;5064015;28;20219;-77
2022/12/06 08:41:54;;;;;;;0.40;0.40;;;4.10;99.90;;;;;;5064790;28;20135;-77
2022/12/06 08:43:57;;;;;;;1.38;0.77;;;4.10;99.90;;;;;;5062898;28;20044;-76
2022/12/06 08:46:23;;;;;;;0.40;0.40;;;4.10;99.90;;;;;;5064631;28;20294;-77
2022/12/06 08:48:50;;;;;;;0.55;0.50;;;4.10;99.90;;;;;;5065342;28;20070;-77
2022/12/06 08:51:17;;;;;;;0.80;0.70;;;4.10;99.90;;;;;;5063386;28;20060;-77
2022/12/06 08:53:43;;;;;;;0.73;0.50;;;4.10;99.90;;;;;;5064921;28;20487;-77
2022/12/06 08:56:10;;;;;;;0.50;0.47;;;4.20;99.90;;;;;;5047324;28;20080;-77
2022/12/06 08:58:37;;;;;;;0.60;0.50;;;4.20;99.90;;;;;;5062629;28;20147;-77
2022/12/06 09:01:15;;;;;;;0.88;0.73;;;4.20;99.90;;;;;;5065251;28;20044;-76
2022/12/06 09:03:42;;;;;;;0.68;0.52;;;4.20;99.90;;;;;;5046685;28;20437;-77
2022/12/06 09:06:09;;;;;;;1.45;0.88;;;4.20;99.90;;;;;;5063153;28;20140;-77
2022/12/06 09:08:36;;;;;;;1.27;0.63;;;4.20;99.90;;;;;;5064747;28;20052;-77
2022/12/06 09:11:03;;;;;;;0.82;0.65;;;4.20;99.90;;;;;;5047398;28;20075;-77
2022/12/06 09:13:30;;;;;;;0.93;0.70;;;4.20;99.90;;;;;;5029785;28;20088;-77
2022/12/06 09:15:56;;;;;;;1.33;0.70;;;4.20;99.90;;;;;;5065258;28;20060;-76
2022/12/06 09:18:23;;;;;;;1.50;1.00;;;4.10;99.90;;;;;;5064788;28;20049;-76
2022/12/06 09:20:50;;;;;;;1.90;0.82;;;4.20;99.90;;;;;;5065020;28;20136;-76
2022/12/06 09:23:16;;;;;;;1.20;0.80;;;4.20;99.90;;;;;;5063456;28;20054;-76
2022/12/06 09:25:43;;;;;;;1.77;0.77;;;4.20;99.90;;;;;;5065203;28;20156;-77
2022/12/06 09:28:10;;;;;;;1.60;1.00;;;4.20;99.90;;;;;;5062403;28;20147;-77
2022/12/06 09:30:37;;;;;;;1.70;1.00;;;4.20;99.90;;;;;;5046624;28;20514;-77
2022/12/06 09:33:04;;;;;;;1.77;1.23;;;4.30;99.90;;;;;;5059526;28;20055;-76
2022/12/06 09:35:30;;;;;;;5.82;1.80;;;4.30;99.90;;;;;;5043904;28;20059;-77
2022/12/06 09:37:57;;;;;;;1.45;1.30;;;4.30;99.90;;;;;;5059336;28;20049;-77
2022/12/06 09:40:48;;;;;;;2.63;1.58;;;4.30;99.90;;;;;;5043607;28;20076;-77
2022/12/06 09:43:26;;;;;;;2.38;1.50;;;4.40;99.90;;;;;;5027759;28;20044;-74
2022/12/06 09:46:09;;;;;;;4.35;1.63;;;4.40;99.90;;;;;;5063445;28;20259;-76
2022/12/06 09:49:17;;;;;;;2.20;1.63;;;4.40;99.90;;;;;;5064135;28;20488;-77
2022/12/06 09:51:50;;;;;;;3.33;2.28;;;4.50;99.90;;;;;;5062800;28;20527;-76
2022/12/06 09:54:42;;;;;;;3.67;1.80;;;4.50;99.90;;;;;;5064482;28;20056;-77
2022/12/06 09:57:25;;;;;;;3.10;1.65;;;4.50;99.90;;;;;;5063069;28;20313;-77
2022/12/06 10:00:03;;;;;;;2.65;1.80;;;4.70;99.90;;;;;;5064217;28;20049;-76
2022/12/06 10:02:54;;;;;;;1.98;1.23;;;4.70;99.90;;;;;;5062156;28;20129;-76
2022/12/06 10:05:33;;;;;;;2.28;1.60;;;4.80;99.90;;;;;;5063000;28;20080;-77
2022/12/06 10:08:30;;;;;;;4.00;1.50;;;4.80;99.90;;;;;;5064663;28;20155;-77
2022/12/06 10:11:02;;;;;;;3.50;1.50;;;4.80;99.90;;;;;;5063030;28;20101;-77
2022/12/06 10:13:37;;;;;;;2.47;1.75;;;4.90;99.90;;;;;;5047087;28;20626;-77
2022/12/06 10:16:15;;;;;;;1.98;1.33;;;4.80;99.90;;;;;;5063263;28;20143;-76
2022/12/06 10:19:16;;;;;;;5.55;1.75;;;4.90;99.90;;;;;;5064011;28;20442;-77
2022/12/06 10:22:08;;;;;;;3.05;1.65;;;4.90;99.90;;;;;;5037740;28;20076;-77
2022/12/06 10:24:58;;;;;;;3.28;1.77;;;4.90;99.90;;;;;;5061640;28;20044;-76
2022/12/06 10:27:30;;;;;;;2.10;1.60;;;5.00;99.90;;;;;;5042045;28;20444;-77
2022/12/06 10:30:00;;;;;;;4.63;2.25;;;5.10;99.90;;;;;;5028580;28;20499;-76
2022/12/06 10:33:15;;;;;;;3.30;1.92;;;5.10;99.90;;;;;;5046643;28;20048;-74
2022/12/06 10:36:05;;;;;;;4.03;1.85;;;5.10;99.90;;;;;;5057675;28;20154;-74
2022/12/06 10:39:01;;;;;;;1.90;1.45;;;5.20;99.90;;;;;;5029926;28;20510;-77
2022/12/06 10:41:42;;;;;;;2.80;1.45;;;5.30;99.90;;;;;;5054872;28;20408;-74
2022/12/06 10:44:26;;;;;;;2.65;1.55;;;5.30;99.90;;;;;;5045704;28;20131;-74
2022/12/06 10:47:02;;;;;;;3.75;1.98;;;5.30;99.90;;;;;;5062709;28;20051;-74
2022/12/06 10:49:47;;;;;;;2.53;1.48;;;5.40;99.90;;;;;;5046038;28;20084;-74
2022/12/06 10:52:32;;;;;;;4.47;1.73;;;5.40;99.90;;;;;;5062561;28;20045;-74
2022/12/06 10:55:09;;;;;;;2.03;1.33;;;5.40;99.90;;;;;;5063645;28;20352;-74
2022/12/06 10:57:42;;;;;;;2.92;1.80;;;5.50;99.90;;;;;;5063237;28;20053;-75
2022/12/06 11:00:15;;;;;;;6.50;3.08;;;5.50;99.90;;;;;;5044277;28;20052;-75
2022/12/06 11:02:51;;;;;;;3.25;1.90;;;5.50;99.90;;;;;;5058558;28;20056;-75
2022/12/06 11:05:25;;;;;;;3.38;1.33;;;5.60;99.90;;;;;;5043085;28;20076;-75
2022/12/06 11:07:53;;;;;;;1.85;1.27;;;5.60;99.90;;;;;;5042836;28;20062;-75
2022/12/06 11:10:28;;;;;;;3.10;1.75;;;5.60;99.90;;;;;;5042843;28;20392;-75
2022/12/06 11:13:12;;;;;;;4.65;1.60;;;5.70;99.90;;;;;;5024997;28;20110;-75
2022/12/06 11:15:39;;;;;;;5.35;1.92;;;5.70;99.90;;;;;;5063440;28;20371;-74
2022/12/06 11:18:14;;;;;;;2.08;1.45;;;5.70;99.90;;;;;;5062158;28;20052;-74
2022/12/06 11:20:45;;;;;;;2.00;1.23;;;5.80;99.90;;;;;;5062495;28;20056;-74
2022/12/06 11:23:20;;;;;;;3.25;1.30;;;5.80;99.90;;;;;;5046209;28;20048;-77
2022/12/06 11:26:14;;;;;;;1.55;1.02;;;5.90;99.90;;;;;;5063711;28;20051;-76
2022/12/06 11:28:42;;;;;;;2.17;1.30;;;5.90;99.90;;;;;;5058116;28;20044;-77
2022/12/06 11:31:29;;;;;;;2.72;1.20;;;6.00;99.90;;;;;;5056235;28;20052;-76
2022/12/06 11:33:57;;;;;;;6.43;1.70;;;6.00;99.90;;;;;;5056409;28;20048;-76
2022/12/06 11:36:24;;;;;;;2.60;1.58;;;6.00;99.90;;;;;;5052614;28;20547;-76
2022/12/06 11:38:51;;;;;;;2.47;1.55;;;6.00;99.90;;;;;;5063244;28;20644;-77
2022/12/06 11:41:21;;;;;;;1.80;1.30;;;6.10;99.90;;;;;;5054666;28;20139;-76
2022/12/06 11:43:48;;;;;;;2.72;1.27;;;6.10;99.90;;;;;;5054114;28;20392;-75
2022/12/06 11:46:14;;;;;;;2.08;1.30;;;6.10;99.90;;;;;;5042869;28;20088;-75
2022/12/06 11:48:41;;;;;;;2.33;1.30;;;6.20;99.90;;;;;;5059057;28;20067;-74
2022/12/06 11:51:26;;;;;;;2.85;1.30;;;6.30;99.90;;;;;;5057283;28;20059;-75
2022/12/06 11:54:03;;;;;;;1.33;1.08;;;6.30;99.90;;;;;;5065329;28;20056;-74
2022/12/06 11:56:31;;;;;;;2.08;1.30;;;6.40;99.90;;;;;;5041069;28;20059;-75
2022/12/06 11:59:04;;;;;;;2.33;0.98;;;6.50;99.90;;;;;;5047494;28;20412;-75
2022/12/06 12:01:45;;;;;;;2.20;1.20;;;6.70;99.90;;;;;;5050901;28;20055;-75
2022/12/06 12:04:22;;;;;;;2.22;1.25;;;6.70;99.90;;;;;;5054985;28;20048;-75
2022/12/06 12:07:03;;;;;;;1.95;1.30;;;6.90;99.90;;;;;;5055380;28;20394;-75
2022/12/06 12:09:47;;;;;;;2.35;1.30;;;7.00;99.90;;;;;;5052594;28;20103;-75
2022/12/06 12:12:16;;;;;;;1.92;1.40;;;7.10;99.90;;;;;;5042044;28;20040;-75
2022/12/06 12:14:43;;;;;;;1.75;1.13;;;7.30;99.90;;;;;;5036048;28;20559;-75
2022/12/06 12:17:29;;;;;;;1.33;1.15;;;7.40;99.90;;;;;;5040405;28;20052;-74
2022/12/06 12:19:58;;;;;;;2.40;1.35;;;7.50;99.90;;;;;;5056166;28;20049;-75
2022/12/06 12:22:29;;;;;;;2.50;1.50;;;7.60;99.90;;;;;;5039911;28;20052;-75
2022/12/06 12:24:58;;;;;;;2.67;1.80;;;7.50;99.90;;;;;;5054692;28;20044;-75
2022/12/06 12:27:49;;;;;;;2.40;1.20;;;7.60;99.90;;;;;;5053620;28;20422;-75
2022/12/06 12:30:39;;;;;;;1.92;1.33;;;7.80;99.90;;;;;;5054837;28;20056;-74
2022/12/06 12:33:09;;;;;;;4.32;1.73;;;8.00;99.90;;;;;;5048583;28;20055;-75
2022/12/06 12:35:41;;;;;;;2.33;1.27;;;8.10;99.90;;;;;;5054784;28;20218;-74
2022/12/06 12:38:16;;;;;;;1.45;1.15;;;8.20;99.90;;;;;;5037180;28;20395;-75
2022/12/06 12:40:51;;;;;;;3.00;1.40;;;8.40;99.90;;;;;;5053259;28;20049;-75
2022/12/06 12:43:32;;;;;;;2.90;1.45;;;8.50;99.90;;;;;;5065341;28;20048;-75
2022/12/06 12:46:11;;;;;;;1.90;1.38;;;8.60;99.90;;;;;;5053890;28;20887;-76
2022/12/06 12:48:38;;;;;;;2.15;1.42;;;8.60;99.90;;;;;;5056940;28;20068;-74
2022/12/06 12:51:19;;;;;;;3.70;1.80;;;8.70;99.90;;;;;;5055092;28;20063;-75
2022/12/06 12:53:48;;;;;;;1.70;1.50;;;8.70;99.90;;;;;;5054428;28;20052;-75
2022/12/06 12:56:18;;;;;;;2.22;1.80;;;8.80;99.90;;;;;;5052165;28;20044;-75
2022/12/06 12:58:46;;;;;;;2.30;1.40;;;8.90;99.90;;;;;;5054373;28;20056;-75
2022/12/06 13:01:44;;;;;;;3.47;1.85;;;9.10;99.90;;;;;;5045165;28;20144;-77
2022/12/06 13:04:16;;;;;;;2.22;1.55;;;9.00;99.90;;;;;;5040714;28;20052;-76
2022/12/06 13:06:57;;;;;;;2.75;1.70;;;8.70;99.90;;;;;;5055275;28;20119;-77
2022/12/06 13:09:27;;;;;;;2.00;1.33;;;8.60;99.90;;;;;;5056012;28;20533;-77
2022/12/06 13:12:01;;;;;;;2.15;1.48;;;8.60;99.90;;;;;;5065274;28;20076;-76
2022/12/06 13:14:27;;;;;;;3.05;1.45;;;8.80;99.90;;;;;;5047066;28;20052;-77
2022/12/06 13:16:55;;;;;;;2.58;1.55;;;8.90;99.90;;;;;;5068810;28;20054;-77
2022/12/06 13:19:31;;;;;;;2.05;1.30;;;9.00;99.90;;;;;;5064902;28;20492;-77
2022/12/06 13:21:59;;;;;;;3.10;1.48;;;9.10;99.90;;;;;;5070541;28;20454;-77
2022/12/06 13:24:27;;;;;;;3.22;1.20;;;8.90;99.90;;;;;;5066791;28;20128;-77
2022/12/06 13:27:04;;;;;;;1.23;0.80;;;8.70;99.90;;;;;;5057246;28;20040;-76
2022/12/06 13:29:39;;;;;;;1.23;0.90;;;8.70;99.90;;;;;;5044246;28;20344;-77
2022/12/06 13:32:25;;;;;;;1.70;1.00;;;8.70;99.90;;;;;;5024513;28;20467;-77
2022/12/06 13:34:58;;;;;;;1.52;0.90;;;8.80;99.90;;;;;;5041743;28;20056;-77
2022/12/06 13:37:50;;;;;;;1.65;1.00;;;8.80;99.90;;;;;;5061453;28;20055;-77
2022/12/06 13:40:32;;;;;;;1.40;0.90;;;8.90;99.90;;;;;;5063424;28;20048;-77
2022/12/06 13:42:59;;;;;;;1.67;1.10;;;9.20;99.90;;;;;;5055363;28;20076;-77